sensor_id;sensor_type;location;lat;lon;timestamp;pressure;altitude;pressure_sealevel;temperature;humidity
9281;BME280;4679;47.966;7.958;2023-01-28T00:00:21;97563.88;;;0.34;72.78
9281;BME280;4679;47.966;7.958;2023-01-28T00:02:23;97563.88;;;0.34;72.67
9281;BME280;4679;47.966;7.958;2023-01-28T00:04:25;97560.44;;;0.33;72.99
9281;BME280;4679;47.966;7.958;2023-01-28T00:06:28;97560.28;;;0.35;72.65
9281;BME280;4679;47.966;7.958;2023-01-28T00:08:29;97560.28;;;0.35;72.24
9281;BME280;4679;47.966;7.958;2023-01-28T00:10:33;97554.41;;;0.33;72.76
9281;BME280;4679;47.966;7.958;2023-01-28T00:12:34;97556.03;;;0.34;72.92
9281;BME280;4679;47.966;7.958;2023-01-28T00:14:36;97550.16;;;0.32;72.93
9281;BME280;4679;47.966;7.958;2023-01-28T00:16:38;97555.38;;;0.32;72.75
9281;BME280;4679;47.966;7.958;2023-01-28T00:18:39;97555.22;;;0.33;72.97
9281;BME280;4679;47.966;7.958;2023-01-28T00:20:41;97561.25;;;0.34;72.71
9281;BME280;4679;47.966;7.958;2023-01-28T00:22:47;97561.25;;;0.34;72.86
9281;BME280;4679;47.966;7.958;2023-01-28T00:24:48;97559.63;;;0.33;72.74
9281;BME280;4679;47.966;7.958;2023-01-28T00:26:50;97557.00;;;0.33;72.33
9281;BME280;4679;47.966;7.958;2023-01-28T00:28:52;97549.19;;;0.33;72.92
9281;BME280;4679;47.966;7.958;2023-01-28T00:30:53;97540.22;;;0.35;72.54
9281;BME280;4679;47.966;7.958;2023-01-28T00:32:55;97555.88;;;0.35;72.89
9281;BME280;4679;47.966;7.958;2023-01-28T00:34:57;97555.06;;;0.35;72.97
9281;BME280;4679;47.966;7.958;2023-01-28T00:36:59;97547.22;;;0.35;73.04
9281;BME280;4679;47.966;7.958;2023-01-28T00:39:02;97554.88;;;0.37;72.94
9281;BME280;4679;47.966;7.958;2023-01-28T00:41:07;97539.41;;;0.35;72.53
9281;BME280;4679;47.966;7.958;2023-01-28T00:43:09;97540.38;;;0.34;72.74
9281;BME280;4679;47.966;7.958;2023-01-28T00:45:11;97532.38;;;0.35;73.03
9281;BME280;4679;47.966;7.958;2023-01-28T00:47:13;97538.41;;;0.36;72.55
9281;BME280;4679;47.966;7.958;2023-01-28T00:49:14;97540.06;;;0.37;72.97
9281;BME280;4679;47.966;7.958;2023-01-28T00:51:17;97541.19;;;0.34;72.54
9281;BME280;4679;47.966;7.958;2023-01-28T00:53:20;97537.94;;;0.32;72.97
9281;BME280;4679;47.966;7.958;2023-01-28T00:55:22;97530.28;;;0.31;72.59
9281;BME280;4679;47.966;7.958;2023-01-28T00:57:24;97530.28;;;0.31;73.17
9281;BME280;4679;47.966;7.958;2023-01-28T00:59:26;97538.75;;;0.33;73.06
9281;BME280;4679;47.966;7.958;2023-01-28T01:01:28;97536.94;;;0.33;72.97
9281;BME280;4679;47.966;7.958;2023-01-28T01:03:29;97529.28;;;0.32;73.12
9281;BME280;4679;47.966;7.958;2023-01-28T01:05:31;97533.19;;;0.36;73.08
9281;BME280;4679;47.966;7.958;2023-01-28T01:07:33;97550.50;;;0.37;72.77
9281;BME280;4679;47.966;7.958;2023-01-28T01:09:40;97551.31;;;0.38;72.66
9281;BME280;4679;47.966;7.958;2023-01-28T01:11:43;97540.22;;;0.35;72.63
9281;BME280;4679;47.966;7.958;2023-01-28T01:13:49;97548.84;;;0.36;72.73
9281;BME280;4679;47.966;7.958;2023-01-28T01:16:00;97550.16;;;0.32;73.04
9281;BME280;4679;47.966;7.958;2023-01-28T01:18:02;97548.09;;;0.27;72.98
9281;BME280;4679;47.966;7.958;2023-01-28T01:20:05;97537.97;;;0.24;72.86
9281;BME280;4679;47.966;7.958;2023-01-28T01:22:08;97538.97;;;0.23;73.22
9281;BME280;4679;47.966;7.958;2023-01-28T01:24:09;97537.16;;;0.24;72.95
9281;BME280;4679;47.966;7.958;2023-01-28T01:26:12;97533.91;;;0.22;73.23
9281;BME280;4679;47.966;7.958;2023-01-28T01:28:15;97537.66;;;0.19;72.91
9281;BME280;4679;47.966;7.958;2023-01-28T01:30:17;97535.88;;;0.20;73.24
9281;BME280;4679;47.966;7.958;2023-01-28T01:32:20;97536.50;;;0.22;73.26
9281;BME280;4679;47.966;7.958;2023-01-28T01:34:22;97543.84;;;0.26;73.38
9281;BME280;4679;47.966;7.958;2023-01-28T01:36:24;97543.53;;;0.29;73.13
9281;BME280;4679;47.966;7.958;2023-01-28T01:38:27;97531.75;;;0.33;72.88
9281;BME280;4679;47.966;7.958;2023-01-28T01:40:29;97550.81;;;0.34;73.12
9281;BME280;4679;47.966;7.958;2023-01-28T01:42:31;97542.00;;;0.35;73.29
9281;BME280;4679;47.966;7.958;2023-01-28T01:44:52;97538.75;;;0.33;73.34
9281;BME280;4679;47.966;7.958;2023-01-28T01:46:55;97538.59;;;0.34;73.25
9281;BME280;4679;47.966;7.958;2023-01-28T01:49:05;97542.00;;;0.35;73.40
9281;BME280;4679;47.966;7.958;2023-01-28T01:51:10;97540.22;;;0.35;73.36
9281;BME280;4679;47.966;7.958;2023-01-28T01:53:16;97544.78;;;0.33;72.84
9281;BME280;4679;47.966;7.958;2023-01-28T01:55:20;97540.38;;;0.34;73.25
9281;BME280;4679;47.966;7.958;2023-01-28T01:57:28;97550.97;;;0.32;73.22
9281;BME280;4679;47.966;7.958;2023-01-28T01:59:32;97550.16;;;0.32;73.42
9281;BME280;4679;47.966;7.958;2023-01-28T02:01:35;97552.78;;;0.32;73.36
9281;BME280;4679;47.966;7.958;2023-01-28T02:03:42;97542.34;;;0.32;73.04
9281;BME280;4679;47.966;7.958;2023-01-28T02:05:44;97546.75;;;0.31;73.21
9281;BME280;4679;47.966;7.958;2023-01-28T02:07:47;97551.81;;;0.33;73.46
9281;BME280;4679;47.966;7.958;2023-01-28T02:09:49;97551.63;;;0.34;73.20
9281;BME280;4679;47.966;7.958;2023-01-28T02:11:53;97553.25;;;0.35;73.31
9281;BME280;4679;47.966;7.958;2023-01-28T02:13:59;97545.59;;;0.34;72.99
9281;BME280;4679;47.966;7.958;2023-01-28T02:16:02;97540.38;;;0.34;73.01
9281;BME280;4679;47.966;7.958;2023-01-28T02:18:06;97542.81;;;0.35;73.03
9281;BME280;4679;47.966;7.958;2023-01-28T02:20:10;97537.59;;;0.35;73.45
9281;BME280;4679;47.966;7.958;2023-01-28T02:22:30;97539.41;;;0.35;73.51
9281;BME280;4679;47.966;7.958;2023-01-28T02:24:52;97538.41;;;0.36;72.71
9281;BME280;4679;47.966;7.958;2023-01-28T02:27:18;97538.25;;;0.38;73.31
9281;BME280;4679;47.966;7.958;2023-01-28T02:29:27;97539.06;;;0.38;73.28
9281;BME280;4679;47.966;7.958;2023-01-28T02:31:33;97540.06;;;0.37;73.16
9281;BME280;4679;47.966;7.958;2023-01-28T02:33:41;97541.84;;;0.37;73.11
9281;BME280;4679;47.966;7.958;2023-01-28T02:35:47;97537.59;;;0.35;73.58
9281;BME280;4679;47.966;7.958;2023-01-28T02:37:52;97545.28;;;0.37;73.31
9281;BME280;4679;47.966;7.958;2023-01-28T02:39:58;97543.31;;;0.39;73.68
9281;BME280;4679;47.966;7.958;2023-01-28T02:42:05;97546.22;;;0.44;73.36
9281;BME280;4679;47.966;7.958;2023-01-28T02:44:08;97547.66;;;0.47;73.65
9281;BME280;4679;47.966;7.958;2023-01-28T02:46:16;97548.47;;;0.47;73.62
9281;BME280;4679;47.966;7.958;2023-01-28T02:48:36;97546.34;;;0.51;72.96
9281;BME280;4679;47.966;7.958;2023-01-28T02:50:48;97545.53;;;0.50;73.50
9281;BME280;4679;47.966;7.958;2023-01-28T02:53:03;97548.16;;;0.50;73.30
9281;BME280;4679;47.966;7.958;2023-01-28T02:55:31;97553.69;;;0.47;73.64
9281;BME280;4679;47.966;7.958;2023-01-28T02:57:40;97554.88;;;0.45;73.71
9281;BME280;4679;47.966;7.958;2023-01-28T02:59:48;97559.44;;;0.43;73.73
9281;BME280;4679;47.966;7.958;2023-01-28T03:01:55;97564.50;;;0.36;73.63
9281;BME280;4679;47.966;7.958;2023-01-28T03:04:03;97561.91;;;0.36;73.90
9281;BME280;4679;47.966;7.958;2023-01-28T03:06:10;97564.84;;;0.33;74.13
9281;BME280;4679;47.966;7.958;2023-01-28T03:08:16;97553.75;;;0.31;73.67
9281;BME280;4679;47.966;7.958;2023-01-28T03:10:36;97555.38;;;0.32;74.01
9281;BME280;4679;47.966;7.958;2023-01-28T03:12:39;97558.66;;;0.34;73.58
9281;BME280;4679;47.966;7.958;2023-01-28T03:15:02;97556.03;;;0.34;73.62
9281;BME280;4679;47.966;7.958;2023-01-28T03:17:31;97548.84;;;0.36;73.82
9281;BME280;4679;47.966;7.958;2023-01-28T03:19:52;97554.06;;;0.36;74.06
9281;BME280;4679;47.966;7.958;2023-01-28T03:22:11;97555.06;;;0.35;73.83
9281;BME280;4679;47.966;7.958;2023-01-28T03:24:34;97556.69;;;0.36;73.48
9281;BME280;4679;47.966;7.958;2023-01-28T03:26:57;97551.63;;;0.34;73.56
9281;BME280;4679;47.966;7.958;2023-01-28T03:29:20;97566.47;;;0.34;73.84
9281;BME280;4679;47.966;7.958;2023-01-28T03:31:42;97568.28;;;0.33;73.68
9281;BME280;4679;47.966;7.958;2023-01-28T03:34:03;97567.28;;;0.34;73.77
9281;BME280;4679;47.966;7.958;2023-01-28T03:36:23;97566.47;;;0.34;73.83
9281;BME280;4679;47.966;7.958;2023-01-28T03:38:42;97574.31;;;0.34;73.96
9281;BME280;4679;47.966;7.958;2023-01-28T03:40:49;97575.94;;;0.35;73.57
9281;BME280;4679;47.966;7.958;2023-01-28T03:42:51;97566.16;;;0.37;73.71
9281;BME280;4679;47.966;7.958;2023-01-28T03:44:56;97567.94;;;0.37;73.98
9281;BME280;4679;47.966;7.958;2023-01-28T03:46:57;97575.59;;;0.38;73.87
9281;BME280;4679;47.966;7.958;2023-01-28T03:48:58;97573.81;;;0.39;74.01
9281;BME280;4679;47.966;7.958;2023-01-28T03:51:02;97571.03;;;0.40;73.85
9281;BME280;4679;47.966;7.958;2023-01-28T03:53:03;97568.44;;;0.40;73.95
9281;BME280;4679;47.966;7.958;2023-01-28T03:55:13;97575.28;;;0.41;73.70
9281;BME280;4679;47.966;7.958;2023-01-28T03:57:15;97574.47;;;0.41;73.92
9281;BME280;4679;47.966;7.958;2023-01-28T03:59:17;97576.91;;;0.42;73.37
9281;BME280;4679;47.966;7.958;2023-01-28T04:01:19;97573.47;;;0.42;73.48
9281;BME280;4679;47.966;7.958;2023-01-28T04:03:21;97570.72;;;0.43;73.63
9281;BME280;4679;47.966;7.958;2023-01-28T04:05:23;97572.50;;;0.43;73.67
9281;BME280;4679;47.966;7.958;2023-01-28T04:07:26;97570.72;;;0.43;73.74
9281;BME280;4679;47.966;7.958;2023-01-28T04:09:28;97573.47;;;0.42;73.73
9281;BME280;4679;47.966;7.958;2023-01-28T04:11:29;97570.34;;;0.46;73.66
9281;BME280;4679;47.966;7.958;2023-01-28T04:13:31;97564.34;;;0.46;73.67
9281;BME280;4679;47.966;7.958;2023-01-28T04:15:33;97573.78;;;0.47;74.16
9281;BME280;4679;47.966;7.958;2023-01-28T04:17:35;97565.59;;;0.50;74.19
9281;BME280;4679;47.966;7.958;2023-01-28T04:19:37;97562.81;;;0.51;73.72
9281;BME280;4679;47.966;7.958;2023-01-28T04:21:39;97563.81;;;0.50;73.84
9281;BME280;4679;47.966;7.958;2023-01-28T04:23:42;97566.41;;;0.50;73.76
9281;BME280;4679;47.966;7.958;2023-01-28T04:25:44;97576.06;;;0.50;74.15
9281;BME280;4679;47.966;7.958;2023-01-28T04:27:46;97577.69;;;0.51;74.03
9281;BME280;4679;47.966;7.958;2023-01-28T04:29:47;97579.47;;;0.50;73.75
9281;BME280;4679;47.966;7.958;2023-01-28T04:31:49;97584.53;;;0.52;74.01
9281;BME280;4679;47.966;7.958;2023-01-28T04:33:51;97579.47;;;0.50;74.08
9281;BME280;4679;47.966;7.958;2023-01-28T04:35:52;97576.88;;;0.50;73.79
9281;BME280;4679;47.966;7.958;2023-01-28T04:37:54;97588.13;;;0.51;73.72
9281;BME280;4679;47.966;7.958;2023-01-28T04:39:57;97588.13;;;0.51;73.70
9281;BME280;4679;47.966;7.958;2023-01-28T04:41:58;97585.50;;;0.51;73.75
9281;BME280;4679;47.966;7.958;2023-01-28T04:44:00;97581.28;;;0.50;73.91
9281;BME280;4679;47.966;7.958;2023-01-28T04:46:02;97578.31;;;0.53;73.80
9281;BME280;4679;47.966;7.958;2023-01-28T04:48:04;97585.34;;;0.52;73.61
9281;BME280;4679;47.966;7.958;2023-01-28T04:50:07;97585.34;;;0.52;74.14
9281;BME280;4679;47.966;7.958;2023-01-28T04:52:09;97582.91;;;0.51;73.49
9281;BME280;4679;47.966;7.958;2023-01-28T04:54:10;97588.44;;;0.48;73.97
9281;BME280;4679;47.966;7.958;2023-01-28T04:56:13;97586.38;;;0.43;74.14
9281;BME280;4679;47.966;7.958;2023-01-28T04:58:15;97590.78;;;0.43;73.77
9281;BME280;4679;47.966;7.958;2023-01-28T05:00:18;97595.00;;;0.44;73.74
9281;BME280;4679;47.966;7.958;2023-01-28T05:02:19;97606.44;;;0.43;74.04
9281;BME280;4679;47.966;7.958;2023-01-28T05:04:21;97603.81;;;0.43;74.11
9281;BME280;4679;47.966;7.958;2023-01-28T05:06:23;97607.09;;;0.45;73.89
9281;BME280;4679;47.966;7.958;2023-01-28T05:08:25;97609.69;;;0.45;74.17
9281;BME280;4679;47.966;7.958;2023-01-28T05:10:26;97611.66;;;0.43;73.95
9281;BME280;4679;47.966;7.958;2023-01-28T05:12:29;97613.63;;;0.41;74.01
9281;BME280;4679;47.966;7.958;2023-01-28T05:14:32;97612.47;;;0.35;74.31
9281;BME280;4679;47.966;7.958;2023-01-28T05:16:34;97610.03;;;0.33;73.90
9281;BME280;4679;47.966;7.958;2023-01-28T05:18:35;97616.72;;;0.36;74.25
9281;BME280;4679;47.966;7.958;2023-01-28T05:20:37;97612.63;;;0.33;74.26
9281;BME280;4679;47.966;7.958;2023-01-28T05:22:39;97618.66;;;0.34;74.35
9281;BME280;4679;47.966;7.958;2023-01-28T05:24:41;97616.72;;;0.36;74.42
9281;BME280;4679;47.966;7.958;2023-01-28T05:26:42;97612.78;;;0.40;74.42
9281;BME280;4679;47.966;7.958;2023-01-28T05:28:45;97619.47;;;0.43;74.25
9281;BME280;4679;47.966;7.958;2023-01-28T05:30:47;97621.59;;;0.39;74.45
9281;BME280;4679;47.966;7.958;2023-01-28T05:32:49;97621.94;;;0.36;74.74
9281;BME280;4679;47.966;7.958;2023-01-28T05:34:54;97624.38;;;0.38;74.57
9281;BME280;4679;47.966;7.958;2023-01-28T05:36:56;97622.91;;;0.43;74.48
9281;BME280;4679;47.966;7.958;2023-01-28T05:38:58;97625.00;;;0.48;74.47
9281;BME280;4679;47.966;7.958;2023-01-28T05:40:59;97628.09;;;0.51;74.04
9281;BME280;4679;47.966;7.958;2023-01-28T05:43:01;97630.69;;;0.51;73.98
9281;BME280;4679;47.966;7.958;2023-01-28T05:45:05;97623.53;;;0.53;74.03
9281;BME280;4679;47.966;7.958;2023-01-28T05:47:07;97615.53;;;0.55;74.00
9281;BME280;4679;47.966;7.958;2023-01-28T05:49:08;97620.75;;;0.55;74.46
9281;BME280;4679;47.966;7.958;2023-01-28T05:51:12;97626.78;;;0.55;73.65
9281;BME280;4679;47.966;7.958;2023-01-28T05:53:14;97628.56;;;0.55;74.08
9281;BME280;4679;47.966;7.958;2023-01-28T05:55:16;97626.78;;;0.55;74.21
9281;BME280;4679;47.966;7.958;2023-01-28T05:57:17;97626.78;;;0.55;73.68
9281;BME280;4679;47.966;7.958;2023-01-28T05:59:19;97632.81;;;0.56;73.61
9281;BME280;4679;47.966;7.958;2023-01-28T06:01:22;97627.59;;;0.56;73.60
9281;BME280;4679;47.966;7.958;2023-01-28T06:03:24;97623.03;;;0.58;73.78
9281;BME280;4679;47.966;7.958;2023-01-28T06:05:26;97626.44;;;0.58;73.38
9281;BME280;4679;47.966;7.958;2023-01-28T06:07:27;97628.41;;;0.56;73.33
9281;BME280;4679;47.966;7.958;2023-01-28T06:09:29;97628.41;;;0.56;73.68
9281;BME280;4679;47.966;7.958;2023-01-28T06:11:31;97636.09;;;0.58;73.27
9281;BME280;4679;47.966;7.958;2023-01-28T06:13:32;97635.25;;;0.57;73.60
9281;BME280;4679;47.966;7.958;2023-01-28T06:15:34;97647.19;;;0.60;73.19
9281;BME280;4679;47.966;7.958;2023-01-28T06:17:37;97643.75;;;0.59;73.65
9281;BME280;4679;47.966;7.958;2023-01-28T06:19:39;97641.13;;;0.59;73.25
9281;BME280;4679;47.966;7.958;2023-01-28T06:21:41;97642.78;;;0.60;73.62
9281;BME280;4679;47.966;7.958;2023-01-28T06:23:43;97650.59;;;0.60;73.70
9281;BME280;4679;47.966;7.958;2023-01-28T06:25:45;97655.63;;;0.62;73.20
9281;BME280;4679;47.966;7.958;2023-01-28T06:27:46;97656.63;;;0.61;73.16
9281;BME280;4679;47.966;7.958;2023-01-28T06:29:48;97654.03;;;0.61;73.47
9281;BME280;4679;47.966;7.958;2023-01-28T06:31:50;97659.25;;;0.61;73.29
9281;BME280;4679;47.966;7.958;2023-01-28T06:33:53;97660.03;;;0.61;73.21
9281;BME280;4679;47.966;7.958;2023-01-28T06:35:54;97664.28;;;0.62;72.97
9281;BME280;4679;47.966;7.958;2023-01-28T06:37:56;97663.47;;;0.62;73.20
9281;BME280;4679;47.966;7.958;2023-01-28T06:39:57;97659.88;;;0.63;73.20
9281;BME280;4679;47.966;7.958;2023-01-28T06:41:59;97661.66;;;0.62;73.63
9281;BME280;4679;47.966;7.958;2023-01-28T06:44:01;97667.53;;;0.64;72.94
9281;BME280;4679;47.966;7.958;2023-01-28T06:46:03;97671.78;;;0.65;72.98
9281;BME280;4679;47.966;7.958;2023-01-28T06:48:05;97673.56;;;0.65;73.55
9281;BME280;4679;47.966;7.958;2023-01-28T06:50:09;97687.44;;;0.65;72.99
9281;BME280;4679;47.966;7.958;2023-01-28T06:52:11;97674.56;;;0.64;72.98
9281;BME280;4679;47.966;7.958;2023-01-28T06:54:13;97685.97;;;0.63;73.33
9281;BME280;4679;47.966;7.958;2023-01-28T06:56:14;97683.38;;;0.63;72.71
9281;BME280;4679;47.966;7.958;2023-01-28T06:58:16;97688.59;;;0.63;72.68
9281;BME280;4679;47.966;7.958;2023-01-28T07:00:18;97689.56;;;0.62;73.24
9281;BME280;4679;47.966;7.958;2023-01-28T07:02:20;97691.38;;;0.61;72.51
9281;BME280;4679;47.966;7.958;2023-01-28T07:04:22;97691.38;;;0.61;72.88
9281;BME280;4679;47.966;7.958;2023-01-28T07:06:25;97681.94;;;0.60;73.02
9281;BME280;4679;47.966;7.958;2023-01-28T07:08:26;97693.19;;;0.61;72.76
9281;BME280;4679;47.966;7.958;2023-01-28T07:10:28;97704.41;;;0.61;72.71
9281;BME280;4679;47.966;7.958;2023-01-28T07:12:30;97700.00;;;0.62;72.63
9281;BME280;4679;47.966;7.958;2023-01-28T07:14:32;97696.41;;;0.63;72.70
9281;BME280;4679;47.966;7.958;2023-01-28T07:16:33;97694.63;;;0.63;72.74
9281;BME280;4679;47.966;7.958;2023-01-28T07:18:35;97708.66;;;0.62;72.92
9281;BME280;4679;47.966;7.958;2023-01-28T07:20:36;97707.03;;;0.61;72.34
9281;BME280;4679;47.966;7.958;2023-01-28T07:22:41;97712.25;;;0.61;72.70
9281;BME280;4679;47.966;7.958;2023-01-28T07:24:43;97714.88;;;0.61;72.29
9281;BME280;4679;47.966;7.958;2023-01-28T07:26:46;97720.28;;;0.60;72.23
9281;BME280;4679;47.966;7.958;2023-01-28T07:28:48;97713.41;;;0.59;72.20
9281;BME280;4679;47.966;7.958;2023-01-28T07:30:50;97721.25;;;0.59;71.90
9281;BME280;4679;47.966;7.958;2023-01-28T07:32:52;97723.06;;;0.58;71.99
9281;BME280;4679;47.966;7.958;2023-01-28T07:34:54;97722.22;;;0.58;72.42
9281;BME280;4679;47.966;7.958;2023-01-28T07:36:56;97716.84;;;0.59;72.20
9281;BME280;4679;47.966;7.958;2023-01-28T07:38:59;97720.44;;;0.58;72.38
9281;BME280;4679;47.966;7.958;2023-01-28T07:41:01;97714.41;;;0.58;72.30
9281;BME280;4679;47.966;7.958;2023-01-28T07:43:03;97718.81;;;0.57;72.17
9281;BME280;4679;47.966;7.958;2023-01-28T07:45:07;97719.63;;;0.58;71.94
9281;BME280;4679;47.966;7.958;2023-01-28T07:47:09;97715.22;;;0.58;72.08
9281;BME280;4679;47.966;7.958;2023-01-28T07:49:11;97713.41;;;0.59;72.14
9281;BME280;4679;47.966;7.958;2023-01-28T07:51:12;97715.88;;;0.60;72.11
9281;BME280;4679;47.966;7.958;2023-01-28T07:53:14;97712.44;;;0.60;71.77
9281;BME280;4679;47.966;7.958;2023-01-28T07:55:17;97718.28;;;0.62;72.07
9281;BME280;4679;47.966;7.958;2023-01-28T07:57:19;97715.69;;;0.62;72.04
9281;BME280;4679;47.966;7.958;2023-01-28T07:59:22;97711.28;;;0.62;71.86
9281;BME280;4679;47.966;7.958;2023-01-28T08:01:24;97725.97;;;0.63;71.63
9281;BME280;4679;47.966;7.958;2023-01-28T08:03:27;97727.75;;;0.63;71.61
9281;BME280;4679;47.966;7.958;2023-01-28T08:05:36;97730.19;;;0.64;71.57
9281;BME280;4679;47.966;7.958;2023-01-28T08:07:40;97735.41;;;0.64;71.85
9281;BME280;4679;47.966;7.958;2023-01-28T08:09:42;97734.44;;;0.65;71.65
9281;BME280;4679;47.966;7.958;2023-01-28T08:11:44;97732.81;;;0.64;71.50
9281;BME280;4679;47.966;7.958;2023-01-28T08:13:47;97731.03;;;0.65;71.28
9281;BME280;4679;47.966;7.958;2023-01-28T08:15:54;97734.28;;;0.67;71.35
9281;BME280;4679;47.966;7.958;2023-01-28T08:17:57;97743.75;;;0.68;71.71
9281;BME280;4679;47.966;7.958;2023-01-28T08:19:59;97745.06;;;0.72;71.43
9281;BME280;4679;47.966;7.958;2023-01-28T08:22:00;97757.31;;;0.72;71.80
9281;BME280;4679;47.966;7.958;2023-01-28T08:24:02;97752.72;;;0.74;71.34
9281;BME280;4679;47.966;7.958;2023-01-28T08:26:04;97753.53;;;0.74;71.67
9281;BME280;4679;47.966;7.958;2023-01-28T08:28:08;97754.19;;;0.76;71.17
9281;BME280;4679;47.966;7.958;2023-01-28T08:30:11;97754.81;;;0.78;71.62
9281;BME280;4679;47.966;7.958;2023-01-28T08:32:13;97759.22;;;0.78;71.23
9281;BME280;4679;47.966;7.958;2023-01-28T08:34:14;97755.47;;;0.80;71.84
9281;BME280;4679;47.966;7.958;2023-01-28T08:36:16;97758.91;;;0.81;71.66
9281;BME280;4679;47.966;7.958;2023-01-28T08:38:17;97758.75;;;0.82;71.50
9281;BME280;4679;47.966;7.958;2023-01-28T08:40:20;97753.34;;;0.84;70.79
9281;BME280;4679;47.966;7.958;2023-01-28T08:42:21;97757.28;;;0.88;71.04
9281;BME280;4679;47.966;7.958;2023-01-28T08:44:24;97761.50;;;0.89;71.33
9281;BME280;4679;47.966;7.958;2023-01-28T08:46:26;97760.53;;;0.90;70.86
9281;BME280;4679;47.966;7.958;2023-01-28T08:48:28;97750.91;;;0.90;70.91
9281;BME280;4679;47.966;7.958;2023-01-28T08:50:31;97755.94;;;0.92;71.41
9281;BME280;4679;47.966;7.958;2023-01-28T08:52:33;97755.94;;;0.92;70.66
9281;BME280;4679;47.966;7.958;2023-01-28T08:54:34;97759.19;;;0.94;70.69
9281;BME280;4679;47.966;7.958;2023-01-28T08:56:36;97761.81;;;0.94;71.09
9281;BME280;4679;47.966;7.958;2023-01-28T08:58:38;97753.81;;;0.95;71.08
9281;BME280;4679;47.966;7.958;2023-01-28T09:00:43;97758.06;;;0.96;70.41
9281;BME280;4679;47.966;7.958;2023-01-28T09:02:45;97754.28;;;0.99;70.85
9281;BME280;4679;47.966;7.958;2023-01-28T09:04:47;97751.53;;;1.00;70.60
9281;BME280;4679;47.966;7.958;2023-01-28T09:06:48;97760.00;;;1.02;70.71
9281;BME280;4679;47.966;7.958;2023-01-28T09:08:50;97753.00;;;1.03;70.65
9281;BME280;4679;47.966;7.958;2023-01-28T09:10:54;97754.94;;;1.01;70.31
9281;BME280;4679;47.966;7.958;2023-01-28T09:12:55;97768.66;;;1.03;70.23
9281;BME280;4679;47.966;7.958;2023-01-28T09:14:57;97763.09;;;1.06;70.17
9281;BME280;4679;47.966;7.958;2023-01-28T09:17:00;97766.34;;;1.08;69.80
9281;BME280;4679;47.966;7.958;2023-01-28T09:19:02;97771.94;;;1.05;69.72
9281;BME280;4679;47.966;7.958;2023-01-28T09:21:05;97777.59;;;1.09;70.06
9281;BME280;4679;47.966;7.958;2023-01-28T09:23:07;97781.84;;;1.10;69.86
9281;BME280;4679;47.966;7.958;2023-01-28T09:25:08;97778.44;;;1.09;69.31
9281;BME280;4679;47.966;7.958;2023-01-28T09:27:10;97782.69;;;1.10;69.18
9281;BME280;4679;47.966;7.958;2023-01-28T09:29:12;97784.31;;;1.11;69.39
9281;BME280;4679;47.966;7.958;2023-01-28T09:31:13;97786.75;;;1.13;69.55
9281;BME280;4679;47.966;7.958;2023-01-28T09:33:16;97785.94;;;1.12;69.68
9281;BME280;4679;47.966;7.958;2023-01-28T09:35:18;97785.94;;;1.12;69.76
9281;BME280;4679;47.966;7.958;2023-01-28T09:37:20;97782.34;;;1.13;69.51
9281;BME280;4679;47.966;7.958;2023-01-28T09:39:21;97783.16;;;1.14;69.19
9281;BME280;4679;47.966;7.958;2023-01-28T09:41:26;97787.56;;;1.13;69.37
9281;BME280;4679;47.966;7.958;2023-01-28T09:43:43;97790.03;;;1.15;68.89
9281;BME280;4679;47.966;7.958;2023-01-28T09:45:49;97787.25;;;1.16;68.82
9281;BME280;4679;47.966;7.958;2023-01-28T09:47:55;97789.84;;;1.16;69.38
9281;BME280;4679;47.966;7.958;2023-01-28T09:50:02;97782.84;;;1.17;69.37
9281;BME280;4679;47.966;7.958;2023-01-28T09:52:11;97789.69;;;1.18;69.26
9281;BME280;4679;47.966;7.958;2023-01-28T09:54:28;97781.84;;;1.18;69.15
9281;BME280;4679;47.966;7.958;2023-01-28T09:56:38;97783.31;;;1.20;69.07
9281;BME280;4679;47.966;7.958;2023-01-28T09:58:41;97788.53;;;1.20;68.95
9281;BME280;4679;47.966;7.958;2023-01-28T10:00:49;97787.72;;;1.20;69.11
9281;BME280;4679;47.966;7.958;2023-01-28T10:03:06;97797.38;;;1.19;68.79
9281;BME280;4679;47.966;7.958;2023-01-28T10:05:18;97797.38;;;1.19;69.20
9281;BME280;4679;47.966;7.958;2023-01-28T10:07:29;97787.72;;;1.20;69.37
9281;BME280;4679;47.966;7.958;2023-01-28T10:09:42;97798.03;;;1.21;68.91
9281;BME280;4679;47.966;7.958;2023-01-28T10:11:57;97799.63;;;1.22;68.92
9281;BME280;4679;47.966;7.958;2023-01-28T10:14:07;97799.47;;;1.24;69.29
9281;BME280;4679;47.966;7.958;2023-01-28T10:16:22;97801.91;;;1.25;69.16
9281;BME280;4679;47.966;7.958;2023-01-28T10:18:33;97798.31;;;1.26;68.74
9281;BME280;4679;47.966;7.958;2023-01-28T10:20:40;97797.31;;;1.27;69.40
9281;BME280;4679;47.966;7.958;2023-01-28T10:22:48;97794.72;;;1.27;69.28
9281;BME280;4679;47.966;7.958;2023-01-28T10:24:54;97794.06;;;1.25;69.29
9281;BME280;4679;47.966;7.958;2023-01-28T10:27:01;97789.66;;;1.26;69.33
9281;BME280;4679;47.966;7.958;2023-01-28T10:29:11;97788.50;;;1.28;68.70
9281;BME280;4679;47.966;7.958;2023-01-28T10:31:13;97787.34;;;1.31;68.44
9281;BME280;4679;47.966;7.958;2023-01-28T10:33:19;97789.00;;;1.32;69.08
9281;BME280;4679;47.966;7.958;2023-01-28T10:35:21;97784.59;;;1.32;68.89
9281;BME280;4679;47.966;7.958;2023-01-28T10:37:25;97787.19;;;1.32;68.83
9281;BME280;4679;47.966;7.958;2023-01-28T10:39:27;97780.00;;;1.34;69.01
9281;BME280;4679;47.966;7.958;2023-01-28T10:41:31;97782.44;;;1.36;68.40
9281;BME280;4679;47.966;7.958;2023-01-28T10:43:35;97775.22;;;1.38;68.83
9281;BME280;4679;47.966;7.958;2023-01-28T10:45:51;97779.31;;;1.40;68.79
9281;BME280;4679;47.966;7.958;2023-01-28T10:47:59;97770.47;;;1.41;68.43
9281;BME280;4679;47.966;7.958;2023-01-28T10:50:04;97780.94;;;1.41;68.74
9281;BME280;4679;47.966;7.958;2023-01-28T10:52:10;97772.94;;;1.43;68.46
9281;BME280;4679;47.966;7.958;2023-01-28T10:54:20;97777.00;;;1.46;68.38
9281;BME280;4679;47.966;7.958;2023-01-28T10:56:24;97773.91;;;1.50;68.06
9281;BME280;4679;47.966;7.958;2023-01-28T10:58:28;97773.09;;;1.50;68.26
9281;BME280;4679;47.966;7.958;2023-01-28T11:00:33;97765.88;;;1.52;67.80
9281;BME280;4679;47.966;7.958;2023-01-28T11:02:36;97760.13;;;1.56;67.71
9281;BME280;4679;47.966;7.958;2023-01-28T11:04:38;97744.75;;;1.61;67.85
9281;BME280;4679;47.966;7.958;2023-01-28T11:06:39;97746.41;;;1.85;68.03
9281;BME280;4679;47.966;7.958;2023-01-28T11:08:42;97748.88;;;2.09;67.25
9281;BME280;4679;47.966;7.958;2023-01-28T11:10:46;97745.63;;;2.45;66.68
9281;BME280;4679;47.966;7.958;2023-01-28T11:12:54;97750.25;;;2.43;66.69
9281;BME280;4679;47.966;7.958;2023-01-28T11:14:57;97744.56;;;2.39;66.60
9281;BME280;4679;47.966;7.958;2023-01-28T11:16:59;97746.06;;;2.34;66.45
9281;BME280;4679;47.966;7.958;2023-01-28T11:19:03;97742.09;;;2.38;67.30
9281;BME280;4679;47.966;7.958;2023-01-28T11:21:06;97751.50;;;2.47;66.71
9281;BME280;4679;47.966;7.958;2023-01-28T11:23:21;97746.03;;;2.57;66.92
9281;BME280;4679;47.966;7.958;2023-01-28T11:25:28;97745.13;;;2.64;66.69